createdAt,value
2023-02-05T00:01:31.012Z,18.23
2023-02-05T00:03:57.823Z,19.90
2023-02-05T00:06:25.101Z,17.87
2023-02-05T00:08:51.944Z,18.83
2023-02-05T00:11:18.913Z,18.53
2023-02-05T00:13:45.687Z,17.13
2023-02-05T00:16:17.663Z,18.23
2023-02-05T00:18:44.845Z,17.17
2023-02-05T00:21:13.240Z,17.33
2023-02-05T00:23:40.491Z,17.30
2023-02-05T00:26:08.358Z,18.80
2023-02-05T00:28:36.981Z,17.97
2023-02-05T00:31:14.516Z,18.10
2023-02-05T00:33:41.569Z,19.23
2023-02-05T00:36:11.913Z,18.53
2023-02-05T00:38:40.535Z,21.33
2023-02-05T00:41:07.624Z,22.27
2023-02-05T00:43:34.513Z,16.23
2023-02-05T00:46:01.600Z,15.93
2023-02-05T00:48:28.762Z,14.93
2023-02-05T00:50:56.263Z,15.93
2023-02-05T00:53:24.259Z,14.40
2023-02-05T00:55:51.098Z,12.80
2023-02-05T00:58:18.217Z,13.10
2023-02-05T01:00:45.872Z,13.43
2023-02-05T01:03:14.164Z,12.90
2023-02-05T01:05:41.128Z,12.63
2023-02-05T01:08:10.889Z,11.23
2023-02-05T01:10:38.602Z,9.60
2023-02-05T01:13:05.994Z,10.23
2023-02-05T01:15:33.294Z,11.60
2023-02-05T01:18:00.869Z,11.37
2023-02-05T01:20:27.780Z,10.33
2023-02-05T01:22:55.069Z,10.80
2023-02-05T01:25:21.830Z,10.77
2023-02-05T01:27:48.632Z,8.27
2023-02-05T01:30:16.138Z,8.20
2023-02-05T01:32:42.939Z,9.17
2023-02-05T01:35:09.895Z,9.30
2023-02-05T01:37:36.792Z,8.80
2023-02-05T01:40:04.182Z,8.07
2023-02-05T01:42:32.667Z,10.00
2023-02-05T01:45:32.750Z,9.30
2023-02-05T01:48:04.588Z,7.50
2023-02-05T01:50:44.105Z,7.80
2023-02-05T01:53:21.287Z,7.43
2023-02-05T01:56:10.277Z,7.13
2023-02-05T01:58:46.016Z,7.60
2023-02-05T02:01:13.009Z,6.77
2023-02-05T02:03:40.784Z,7.07
2023-02-05T02:06:08.196Z,6.50
2023-02-05T02:08:34.989Z,6.40
2023-02-05T02:11:05.893Z,7.50
2023-02-05T02:13:36.198Z,8.50
2023-02-05T02:16:05.235Z,7.47
2023-02-05T02:18:36.568Z,7.07
2023-02-05T02:21:31.435Z,7.63
2023-02-05T02:24:28.300Z,7.37
2023-02-05T02:27:47.372Z,6.87
2023-02-05T02:30:25.700Z,6.60
2023-02-05T02:33:14.243Z,6.27
2023-02-05T02:35:54.028Z,6.07
2023-02-05T02:38:34.605Z,6.13
2023-02-05T02:41:15.145Z,5.77
2023-02-05T02:43:52.244Z,6.47
2023-02-05T02:46:52.545Z,11.77
2023-02-05T02:49:31.784Z,9.87
2023-02-05T02:52:02.017Z,15.20
2023-02-05T02:54:29.442Z,13.03
2023-02-05T02:56:58.358Z,14.67
2023-02-05T02:59:30.144Z,15.10
2023-02-05T03:02:01.523Z,15.03
2023-02-05T03:04:41.627Z,12.93
2023-02-05T03:07:11.301Z,11.73
2023-02-05T03:09:56.873Z,9.93
2023-02-05T03:12:23.823Z,7.93
2023-02-05T03:14:52.122Z,9.20
2023-02-05T03:17:19.857Z,9.73
2023-02-05T03:19:50.642Z,9.27
2023-02-05T03:22:17.540Z,8.20
2023-02-05T03:24:44.546Z,5.90
2023-02-05T03:27:11.337Z,5.80
2023-02-05T03:29:44.652Z,5.23
2023-02-05T03:32:43.794Z,5.10
2023-02-05T03:35:38.237Z,5.10
2023-02-05T03:38:52.617Z,5.03
2023-02-05T03:42:05.053Z,5.23
2023-02-05T03:45:19.253Z,5.07
2023-02-05T03:47:51.926Z,5.13
2023-02-05T03:50:33.661Z,4.83
2023-02-05T03:53:28.112Z,4.97
2023-02-05T03:56:12.381Z,5.03
2023-02-05T03:58:46.287Z,5.97
2023-02-05T04:01:14.140Z,5.37
2023-02-05T04:03:41.351Z,6.07
2023-02-05T04:06:09.015Z,5.43
2023-02-05T04:08:36.412Z,5.37
2023-02-05T04:11:03.614Z,5.10
2023-02-05T04:13:30.392Z,5.23
2023-02-05T04:15:57.347Z,4.87
2023-02-05T04:18:24.365Z,4.77
2023-02-05T04:20:51.284Z,4.80
2023-02-05T04:23:18.139Z,4.60
2023-02-05T04:25:44.980Z,4.60
2023-02-05T04:28:12.318Z,4.43
2023-02-05T04:30:39.676Z,4.80
2023-02-05T04:33:06.475Z,4.80
2023-02-05T04:35:33.675Z,4.90
2023-02-05T04:38:01.240Z,4.57
2023-02-05T04:40:28.095Z,4.50
2023-02-05T04:42:54.995Z,4.77
2023-02-05T04:45:22.689Z,4.77
2023-02-05T04:47:49.504Z,4.87
2023-02-05T04:50:16.570Z,4.47
2023-02-05T04:52:43.282Z,4.43
2023-02-05T04:55:10.086Z,4.43
2023-02-05T04:57:37.105Z,4.93
2023-02-05T05:00:05.135Z,4.27
2023-02-05T05:02:32.115Z,4.40
2023-02-05T05:04:58.928Z,4.53
2023-02-05T05:07:25.804Z,4.80
2023-02-05T05:09:52.700Z,4.73
2023-02-05T05:12:19.490Z,5.03
2023-02-05T05:14:46.225Z,5.23
2023-02-05T05:17:14.660Z,5.40
2023-02-05T05:19:41.556Z,5.13
2023-02-05T05:22:08.353Z,5.43
2023-02-05T05:24:35.076Z,4.60
2023-02-05T05:27:01.935Z,6.10
2023-02-05T05:29:28.722Z,4.70
2023-02-05T05:31:55.563Z,5.03
2023-02-05T05:34:22.706Z,5.67
2023-02-05T05:36:49.574Z,5.30
2023-02-05T05:39:34.782Z,4.47
2023-02-05T05:42:20.199Z,4.97
2023-02-05T05:44:51.933Z,7.23
2023-02-05T05:47:19.619Z,6.90
2023-02-05T05:49:47.608Z,5.50
2023-02-05T05:52:14.959Z,4.83
2023-02-05T05:54:41.829Z,5.20
2023-02-05T05:57:08.910Z,5.43
2023-02-05T05:59:35.880Z,5.93
2023-02-05T06:02:03.781Z,4.97
2023-02-05T06:04:31.242Z,5.97
2023-02-05T06:06:59.189Z,6.30
2023-02-05T06:09:25.995Z,6.87
2023-02-05T06:11:52.755Z,6.40
2023-02-05T06:14:19.587Z,6.73
2023-02-05T06:16:46.416Z,6.37
2023-02-05T06:19:13.208Z,5.70
2023-02-05T06:21:40.139Z,7.70
2023-02-05T06:24:07.006Z,6.63
2023-02-05T06:26:33.734Z,6.23
2023-02-05T06:29:03.253Z,6.23
2023-02-05T06:31:31.745Z,6.80
2023-02-05T06:33:58.688Z,6.13
2023-02-05T06:36:25.460Z,6.57
2023-02-05T06:38:53.129Z,6.53
2023-02-05T06:41:19.954Z,6.73
2023-02-05T06:43:46.747Z,7.57
2023-02-05T06:46:13.610Z,7.67
2023-02-05T06:48:40.454Z,7.77
2023-02-05T06:51:07.261Z,8.13
2023-02-05T06:53:34.082Z,9.00
2023-02-05T06:56:01.140Z,6.87
2023-02-05T06:58:28.008Z,6.97
2023-02-05T07:00:54.778Z,7.90
2023-02-05T07:03:21.591Z,6.73
2023-02-05T07:05:48.405Z,8.23
2023-02-05T07:08:15.219Z,8.50
2023-02-05T07:10:42.085Z,8.63
2023-02-05T07:13:08.936Z,10.27
2023-02-05T07:15:37.531Z,10.40
2023-02-05T07:18:05.400Z,10.50
2023-02-05T07:20:32.448Z,10.87
2023-02-05T07:23:00.308Z,10.37
2023-02-05T07:25:27.155Z,10.27
2023-02-05T07:27:54.121Z,10.13
2023-02-05T07:30:20.940Z,9.73
2023-02-05T07:32:47.761Z,10.07
2023-02-05T07:35:14.652Z,9.27
2023-02-05T07:37:41.482Z,10.50
2023-02-05T07:40:09.281Z,10.63
2023-02-05T07:42:36.322Z,9.43
2023-02-05T07:45:03.436Z,10.60
2023-02-05T07:47:30.241Z,10.30
2023-02-05T07:49:58.104Z,8.83
2023-02-05T07:52:24.858Z,10.40
2023-02-05T07:54:51.746Z,11.10
2023-02-05T07:57:18.546Z,10.93
2023-02-05T07:59:45.320Z,15.23
2023-02-05T08:02:12.510Z,10.90
2023-02-05T08:04:39.398Z,10.63
2023-02-05T08:07:06.295Z,12.33
2023-02-05T08:09:33.333Z,12.10
2023-02-05T08:12:00.153Z,12.00
2023-02-05T08:14:26.958Z,14.27
2023-02-05T08:16:53.724Z,14.83
2023-02-05T08:19:20.462Z,13.73
2023-02-05T08:21:47.257Z,11.20
2023-02-05T08:24:14.091Z,10.50
2023-02-05T08:26:41.185Z,11.87
2023-02-05T08:29:09.044Z,12.67
2023-02-05T08:31:36.557Z,12.23
2023-02-05T08:34:04.269Z,13.00
2023-02-05T08:36:31.545Z,13.50
2023-02-05T08:38:58.395Z,11.07
2023-02-05T08:41:25.178Z,11.10
2023-02-05T08:43:52.126Z,10.47
2023-02-05T08:46:25.099Z,12.33
2023-02-05T08:48:52.471Z,15.97
2023-02-05T08:51:20.806Z,17.03
2023-02-05T08:53:47.620Z,17.03
2023-02-05T08:56:15.889Z,16.30
2023-02-05T08:58:43.219Z,15.70
2023-02-05T09:01:14.928Z,16.07
2023-02-05T09:03:42.055Z,14.33
2023-02-05T09:06:13.993Z,14.20
2023-02-05T09:08:41.605Z,13.73
2023-02-05T09:11:09.421Z,12.43
2023-02-05T09:13:36.684Z,14.67
2023-02-05T09:16:03.648Z,14.37
2023-02-05T09:18:30.887Z,13.90
2023-02-05T09:20:57.780Z,14.03
2023-02-05T09:23:24.596Z,13.07
2023-02-05T09:25:51.395Z,13.73
2023-02-05T09:28:18.431Z,14.23
2023-02-05T09:30:46.491Z,14.20
2023-02-05T09:33:14.494Z,12.47
2023-02-05T09:35:42.211Z,13.50
2023-02-05T09:38:13.635Z,12.53
2023-02-05T09:41:00.375Z,12.63
2023-02-05T09:43:36.589Z,12.40
2023-02-05T09:46:34.679Z,11.30
2023-02-05T09:49:15.739Z,13.90
2023-02-05T09:51:47.219Z,18.07
2023-02-05T09:54:40.425Z,16.17
2023-02-05T09:57:26.472Z,16.20
2023-02-05T09:59:53.269Z,10.20
2023-02-05T10:02:42.554Z,11.63
2023-02-05T10:05:15.167Z,15.97
2023-02-05T10:08:04.077Z,8.27
2023-02-05T10:10:45.711Z,6.73
2023-02-05T10:13:21.476Z,5.40
2023-02-05T10:16:23.153Z,5.10
2023-02-05T10:19:54.999Z,5.03
2023-02-05T10:22:37.314Z,5.57
2023-02-05T10:25:32.651Z,5.20
2023-02-05T10:28:42.429Z,4.23
2023-02-05T10:31:30.537Z,5.13
2023-02-05T10:34:17.969Z,3.50
2023-02-05T10:36:51.930Z,3.23
2023-02-05T10:39:23.171Z,3.63
2023-02-05T10:41:55.890Z,3.17
2023-02-05T10:44:39.463Z,3.57
2023-02-05T10:47:42.686Z,3.70
2023-02-05T10:50:27.463Z,3.00
2023-02-05T10:52:54.419Z,1.80
2023-02-05T10:55:21.358Z,2.23
2023-02-05T10:57:48.507Z,1.90
2023-02-05T11:00:23.240Z,2.77
2023-02-05T11:02:54.890Z,2.10
2023-02-05T11:05:31.961Z,1.70
2023-02-05T11:07:58.805Z,1.93
2023-02-05T11:10:29.462Z,1.90
2023-02-05T11:13:20.238Z,1.47
2023-02-05T11:16:00.133Z,2.00
2023-02-05T11:18:32.864Z,1.90
2023-02-05T11:21:04.043Z,2.00
2023-02-05T11:23:33.434Z,1.60
2023-02-05T11:26:09.182Z,1.80
2023-02-05T11:28:41.635Z,1.23
2023-02-05T11:31:34.957Z,1.33
2023-02-05T11:34:20.547Z,1.07
2023-02-05T11:36:55.009Z,1.10
2023-02-05T11:39:40.793Z,1.30
2023-02-05T11:42:18.826Z,1.80
2023-02-05T11:44:59.108Z,1.60
2023-02-05T11:47:36.791Z,1.10
2023-02-05T11:50:18.817Z,1.60
2023-02-05T11:52:45.806Z,1.77
2023-02-05T11:55:29.878Z,1.10
2023-02-05T11:58:04.534Z,2.43
2023-02-05T12:00:32.685Z,1.40
2023-02-05T12:03:20.025Z,1.30
2023-02-05T12:06:18.330Z,2.03
2023-02-05T12:08:52.634Z,2.60
2023-02-05T12:11:59.871Z,2.07
2023-02-05T12:14:41.225Z,2.40
2023-02-05T12:17:52.620Z,2.13
2023-02-05T12:20:32.998Z,1.10
2023-02-05T12:23:34.688Z,1.10
2023-02-05T12:26:35.047Z,1.00
2023-02-05T12:29:29.589Z,1.10
2023-02-05T12:32:01.628Z,1.20
2023-02-05T12:35:13.628Z,1.00
2023-02-05T12:37:52.367Z,0.87
2023-02-05T12:40:33.627Z,0.70
2023-02-05T12:43:06.783Z,0.60
2023-02-05T12:45:58.359Z,1.00
2023-02-05T12:48:45.711Z,0.90
2023-02-05T12:51:50.042Z,0.60
2023-02-05T12:54:47.858Z,0.70
2023-02-05T12:57:21.770Z,0.60
2023-02-05T12:59:57.386Z,1.00
2023-02-05T13:03:06.883Z,0.80
2023-02-05T13:05:41.996Z,1.27
2023-02-05T13:08:34.133Z,0.63
2023-02-05T13:11:28.746Z,0.60
2023-02-05T13:14:08.084Z,1.60
2023-02-05T13:17:29.141Z,0.93
2023-02-05T13:20:07.462Z,1.37
2023-02-05T13:23:15.516Z,1.33
2023-02-05T13:26:08.610Z,0.70
2023-02-05T13:28:47.425Z,0.83
2023-02-05T13:31:23.877Z,2.20
2023-02-05T13:33:54.437Z,0.80
2023-02-05T13:36:24.021Z,0.80
2023-02-05T13:39:28.890Z,0.97
2023-02-05T13:42:43.014Z,1.30
2023-02-05T13:45:37.729Z,1.20
2023-02-05T13:48:25.422Z,1.50
2023-02-05T13:51:22.302Z,0.70
2023-02-05T13:54:30.124Z,1.10
2023-02-05T13:57:21.716Z,0.90
2023-02-05T13:59:52.974Z,0.93
2023-02-05T14:02:41.263Z,0.90
2023-02-05T14:05:09.130Z,0.90
2023-02-05T14:07:51.386Z,1.00
2023-02-05T14:10:35.889Z,0.87
2023-02-05T14:13:33.602Z,0.90
2023-02-05T14:16:29.574Z,1.00
2023-02-05T14:19:02.146Z,0.97
2023-02-05T14:21:31.685Z,1.17
2023-02-05T14:24:02.598Z,0.97
2023-02-05T14:26:59.611Z,1.70
2023-02-05T14:29:49.665Z,1.40
2023-02-05T14:32:28.366Z,1.20
2023-02-05T14:35:29.450Z,1.27
2023-02-05T14:38:16.441Z,1.90
2023-02-05T14:40:43.783Z,1.27
2023-02-05T14:43:34.964Z,1.63
2023-02-05T14:46:19.776Z,2.00
2023-02-05T14:48:48.614Z,1.90
2023-02-05T14:51:34.478Z,2.23
2023-02-05T14:54:13.565Z,2.47
2023-02-05T14:56:52.511Z,2.67
2023-02-05T14:59:29.738Z,2.70
2023-02-05T15:01:59.657Z,1.37
2023-02-05T15:04:45.933Z,2.30
2023-02-05T15:07:25.811Z,3.40
2023-02-05T15:10:07.086Z,2.90
2023-02-05T15:13:15.619Z,3.40
2023-02-05T15:16:11.660Z,3.43
2023-02-05T15:18:54.374Z,3.40
2023-02-05T15:21:40.297Z,3.10
2023-02-05T15:24:20.442Z,3.60
2023-02-05T15:26:54.956Z,3.60
2023-02-05T15:29:47.715Z,3.50
2023-02-05T15:33:03.673Z,4.73
2023-02-05T15:35:33.626Z,3.63
2023-02-05T15:38:21.051Z,3.63
2023-02-05T15:40:48.352Z,4.17
2023-02-05T15:43:27.247Z,4.10
2023-02-05T15:46:08.234Z,4.30
2023-02-05T15:48:40.195Z,3.63
2023-02-05T15:51:32.925Z,4.00
2023-02-05T15:54:04.198Z,3.50
2023-02-05T15:56:39.462Z,4.00
2023-02-05T15:59:17.175Z,3.80
2023-02-05T16:01:50.033Z,3.13
2023-02-05T16:04:30.775Z,3.40
2023-02-05T16:06:58.089Z,4.50
2023-02-05T16:09:27.896Z,3.17
2023-02-05T16:11:55.696Z,2.77
2023-02-05T16:14:26.097Z,2.87
2023-02-05T16:17:15.464Z,2.57
2023-02-05T16:19:53.691Z,2.67
2023-02-05T16:22:40.570Z,3.60
2023-02-05T16:25:51.345Z,2.67
2023-02-05T16:28:32.325Z,3.13
2023-02-05T16:31:01.111Z,2.80
2023-02-05T16:33:43.235Z,3.00
2023-02-05T16:36:34.262Z,2.67
2023-02-05T16:39:06.676Z,2.57
2023-02-05T16:41:41.834Z,1.90
2023-02-05T16:44:36.038Z,3.07
2023-02-05T16:47:21.300Z,2.93
2023-02-05T16:49:49.395Z,3.33
2023-02-05T16:52:36.372Z,3.10
2023-02-05T16:55:27.097Z,2.73
2023-02-05T16:57:56.747Z,3.40
2023-02-05T17:00:27.701Z,3.60
2023-02-05T17:03:16.146Z,3.10
2023-02-05T17:05:44.323Z,3.03
2023-02-05T17:08:12.545Z,3.27
2023-02-05T17:10:56.273Z,3.30
2023-02-05T17:14:10.806Z,3.50
2023-02-05T17:16:42.084Z,3.20
2023-02-05T17:19:33.184Z,3.07
2023-02-05T17:22:19.118Z,3.20
2023-02-05T17:24:49.378Z,4.20
2023-02-05T17:27:31.434Z,4.40
2023-02-05T17:30:00.065Z,4.50
2023-02-05T17:32:28.490Z,6.07
2023-02-05T17:34:55.535Z,7.37
2023-02-05T17:37:22.294Z,4.33
2023-02-05T17:39:51.488Z,4.90
2023-02-05T17:42:25.929Z,5.37
2023-02-05T17:44:53.757Z,6.07
2023-02-05T17:47:20.599Z,5.97
2023-02-05T17:49:47.783Z,4.97
2023-02-05T17:52:15.403Z,5.13
2023-02-05T17:54:43.198Z,3.70
2023-02-05T17:57:17.482Z,4.60
2023-02-05T17:59:45.280Z,4.10
2023-02-05T18:02:13.650Z,4.27
2023-02-05T18:04:41.813Z,4.37
2023-02-05T18:07:42.513Z,4.60
2023-02-05T18:10:15.181Z,4.30
2023-02-05T18:12:42.348Z,4.20
2023-02-05T18:15:10.884Z,3.20
2023-02-05T18:17:38.011Z,3.30
2023-02-05T18:20:05.957Z,3.40
2023-02-05T18:22:33.418Z,3.37
2023-02-05T18:25:00.417Z,3.53
2023-02-05T18:27:27.890Z,3.60
2023-02-05T18:29:54.825Z,3.10
2023-02-05T18:32:22.407Z,3.07
2023-02-05T18:34:49.369Z,4.97
2023-02-05T18:37:16.988Z,3.43
2023-02-05T18:39:45.649Z,3.27
2023-02-05T18:42:15.114Z,3.73
2023-02-05T18:44:42.121Z,4.20
2023-02-05T18:47:10.117Z,4.10
2023-02-05T18:49:37.193Z,3.40
2023-02-05T18:52:05.486Z,2.97
2023-02-05T18:54:32.342Z,3.20
2023-02-05T18:56:59.145Z,3.70
2023-02-05T18:59:26.046Z,3.40
2023-02-05T19:01:53.619Z,3.30
2023-02-05T19:04:21.080Z,2.77
2023-02-05T19:06:53.224Z,3.30
2023-02-05T19:09:23.333Z,4.77
2023-02-05T19:11:51.565Z,3.33
2023-02-05T19:14:21.065Z,3.63
2023-02-05T19:16:49.503Z,3.67
2023-02-05T19:19:20.978Z,3.30
2023-02-05T19:21:53.372Z,3.37
2023-02-05T19:24:21.717Z,3.70
2023-02-05T19:26:50.813Z,3.80
2023-02-05T19:29:20.586Z,3.67
2023-02-05T19:31:49.076Z,3.93
2023-02-05T19:34:16.757Z,3.73
2023-02-05T19:36:43.864Z,4.57
2023-02-05T19:39:14.142Z,5.70
2023-02-05T19:41:44.161Z,5.87
2023-02-05T19:44:11.439Z,4.70
2023-02-05T19:46:42.081Z,5.07
2023-02-05T19:49:17.102Z,5.60
2023-02-05T19:51:50.547Z,5.80
2023-02-05T19:54:20.574Z,5.63
2023-02-05T19:56:48.975Z,6.10
2023-02-05T19:59:16.817Z,5.73
2023-02-05T20:01:45.351Z,5.30
2023-02-05T20:04:17.754Z,6.10
2023-02-05T20:06:46.730Z,6.30
2023-02-05T20:09:16.413Z,4.23
2023-02-05T20:11:48.112Z,6.83
2023-02-05T20:14:17.061Z,5.97
2023-02-05T20:16:47.071Z,6.63
2023-02-05T20:19:17.298Z,5.53
2023-02-05T20:21:46.435Z,4.57
2023-02-05T20:24:14.660Z,4.80
2023-02-05T20:26:41.586Z,4.60
2023-02-05T20:29:27.370Z,3.97
2023-02-05T20:31:54.913Z,3.83
2023-02-05T20:34:30.793Z,4.50
2023-02-05T20:37:04.245Z,3.60
2023-02-05T20:39:34.486Z,4.03
2023-02-05T20:42:01.842Z,3.60
2023-02-05T20:44:32.271Z,1.87
2023-02-05T20:46:59.369Z,3.90
2023-02-05T20:49:26.307Z,5.00
2023-02-05T20:51:53.989Z,4.80
2023-02-05T20:54:22.672Z,3.90
2023-02-05T20:56:58.987Z,4.63
2023-02-05T20:59:28.097Z,4.53
2023-02-05T21:01:55.312Z,3.80
2023-02-05T21:04:22.346Z,4.53
2023-02-05T21:06:49.769Z,4.90
2023-02-05T21:09:17.157Z,4.40
2023-02-05T21:11:44.117Z,5.17
2023-02-05T21:14:11.620Z,5.20
2023-02-05T21:16:40.206Z,5.40
2023-02-05T21:19:08.703Z,6.23
2023-02-05T21:21:37.166Z,5.60
2023-02-05T21:24:08.456Z,5.67
2023-02-05T21:26:45.146Z,5.63
2023-02-05T21:29:15.825Z,5.50
2023-02-05T21:31:46.448Z,5.77
2023-02-05T21:34:21.764Z,5.87
2023-02-05T21:36:49.923Z,6.10
2023-02-05T21:39:19.944Z,6.23
2023-02-05T21:41:47.632Z,5.93
2023-02-05T21:44:14.761Z,5.00
2023-02-05T21:46:42.160Z,4.97
2023-02-05T21:49:11.076Z,5.67
2023-02-05T21:51:38.078Z,5.53
2023-02-05T21:54:06.515Z,4.87
2023-02-05T21:56:38.374Z,6.07
2023-02-05T21:59:06.615Z,6.03
2023-02-05T22:01:38.706Z,4.83
2023-02-05T22:04:11.999Z,6.30
2023-02-05T22:06:39.676Z,6.47
2023-02-05T22:09:12.455Z,6.47
2023-02-05T22:11:39.515Z,5.20
2023-02-05T22:14:07.500Z,6.30
2023-02-05T22:16:36.952Z,6.17
2023-02-05T22:19:06.551Z,7.87
2023-02-05T22:21:38.929Z,7.77
2023-02-05T22:24:08.301Z,6.73
2023-02-05T22:26:39.048Z,7.87
2023-02-05T22:29:10.387Z,7.37
2023-02-05T22:31:37.454Z,5.77
2023-02-05T22:34:05.442Z,6.37
2023-02-05T22:36:34.544Z,6.27
2023-02-05T22:39:04.553Z,5.13
2023-02-05T22:41:37.934Z,6.37
2023-02-05T22:44:08.254Z,6.33
2023-02-05T22:46:41.965Z,5.50
2023-02-05T22:49:11.163Z,5.30
2023-02-05T22:51:40.263Z,4.90
2023-02-05T22:54:11.703Z,4.30
2023-02-05T22:56:38.917Z,1.70
2023-02-05T22:59:06.325Z,4.23
2023-02-05T23:01:35.374Z,4.60
2023-02-05T23:04:04.688Z,4.10
2023-02-05T23:06:39.092Z,2.43
2023-02-05T23:09:11.266Z,3.93
2023-02-05T23:11:38.579Z,4.17
2023-02-05T23:14:07.252Z,5.60
2023-02-05T23:16:39.450Z,5.60
2023-02-05T23:19:13.312Z,5.60
2023-02-05T23:21:41.364Z,5.60
2023-02-05T23:24:09.972Z,5.93
2023-02-05T23:26:42.091Z,5.90
2023-02-05T23:29:12.201Z,5.90
2023-02-05T23:31:39.822Z,5.27
2023-02-05T23:34:07.302Z,5.97
2023-02-05T23:36:34.110Z,5.67
2023-02-05T23:39:00.941Z,5.97
2023-02-05T23:41:37.363Z,5.63
2023-02-05T23:44:20.152Z,6.47
2023-02-05T23:46:50.240Z,6.20
2023-02-05T23:49:23.287Z,6.33
2023-02-05T23:51:53.174Z,7.10
2023-02-05T23:54:21.254Z,5.83
2023-02-05T23:56:48.483Z,5.90
2023-02-05T23:59:15.900Z,7.07
